Time;durP1;ratioP1;P1;durP2;ratioP2;P2;SDS_P1;SDS_P2;PMS_P1;PMS_P2;Temp;Humidity;BMP_temperature;BMP_pressure;BME280_temperature;BME280_humidity;BME280_pressure;Samples;Min_cycle;Max_cycle;Signal;HPM_P1;HPM_P2
2021/12/20 00:02:18;;;;;;;10.57;5.60;;;;;;;1.41;100.00;94365.38;5131742;27;20457;-75
2021/12/20 00:04:49;;;;;;;13.00;6.32;;;;;;;1.33;100.00;94366.28;5128763;27;20061;-74
2021/12/20 00:07:16;;;;;;;10.98;5.82;;;;;;;1.37;100.00;94371.84;5129718;27;20043;-74
2021/12/20 00:09:43;;;;;;;13.38;6.18;;;;;;;1.30;100.00;94380.28;5128668;27;20050;-74
2021/12/20 00:12:10;;;;;;;11.68;6.38;;;;;;;1.40;100.00;94386.88;5126037;27;20511;-74
2021/12/20 00:14:36;;;;;;;13.00;6.28;;;;;;;1.46;100.00;94391.25;5109296;27;20050;-72
2021/12/20 00:17:03;;;;;;;14.20;5.10;;;;;;;1.40;100.00;94389.44;5125826;27;20126;-74
2021/12/20 00:19:30;;;;;;;13.13;6.65;;;;;;;1.39;100.00;94395.53;5129117;27;20464;-73
2021/12/20 00:21:57;;;;;;;7.20;4.50;;;;;;;1.36;100.00;94385.66;5127683;27;20039;-73
2021/12/20 00:24:27;;;;;;;11.35;7.18;;;;;;;1.37;100.00;94366.72;5127422;27;20504;-74
2021/12/20 00:26:54;;;;;;;9.02;4.70;;;;;;;1.45;100.00;94374.28;5109433;27;20054;-74
2021/12/20 00:29:21;;;;;;;11.82;6.10;;;;;;;1.46;100.00;94375.84;5128643;27;20034;-74
2021/12/20 00:31:48;;;;;;;9.55;5.75;;;;;;;1.37;100.00;94362.38;5130141;27;20054;-74
2021/12/20 00:34:15;;;;;;;12.57;5.13;;;;;;;1.46;100.00;94375.84;5129684;27;20051;-74
2021/12/20 00:36:42;;;;;;;11.02;6.82;;;;;;;1.44;100.00;94362.44;5131005;27;20049;-74
2021/12/20 00:41:54;;;;;;;8.57;4.75;;;;;;;1.48;100.00;94366.22;5128003;27;20039;-75
2021/12/20 00:44:21;;;;;;;7.22;3.95;;;;;;;1.52;100.00;94380.28;5129688;27;20043;-76
2021/12/20 00:46:53;;;;;;;11.68;5.50;;;;;;;1.56;100.00;94386.59;5129772;27;20525;-75
2021/12/20 00:49:20;;;;;;;8.80;4.70;;;;;;;1.54;100.00;94398.84;5131612;27;20047;-75
2021/12/20 00:51:47;;;;;;;7.20;4.35;;;;;;;1.61;100.00;94389.41;5129636;27;20500;-76
2021/12/20 00:54:14;;;;;;;7.80;4.50;;;;;;;1.64;100.00;94394.19;5132746;27;20050;-76
2021/12/20 00:56:41;;;;;;;10.30;5.18;;;;;;;1.69;99.90;94397.00;5131010;27;20396;-75
2021/12/20 00:59:08;;;;;;;10.15;5.03;;;;;;;1.62;99.86;94375.63;5138912;27;20041;-76
2021/12/20 01:01:35;;;;;;;8.40;4.97;;;;;;;1.61;100.00;94384.28;5113140;27;20035;-75
2021/12/20 01:04:03;;;;;;;11.23;4.75;;;;;;;1.61;100.00;94373.22;5114627;27;20485;-75
2021/12/20 01:06:30;;;;;;;8.85;4.13;;;;;;;1.59;100.00;94370.84;5111013;27;20447;-74
2021/12/20 01:08:57;;;;;;;10.10;5.78;;;;;;;1.61;100.00;94368.88;5112795;27;20059;-73
2021/12/20 01:11:27;;;;;;;8.15;4.00;;;;;;;1.62;100.00;94375.63;5113673;27;20039;-73
2021/12/20 01:13:55;;;;;;;7.80;5.05;;;;;;;1.69;100.00;94402.13;5119500;27;20397;-73
2021/12/20 01:16:31;;;;;;;7.60;4.90;;;;;;;1.58;100.00;94389.00;5107607;27;20118;-73
2021/12/20 01:18:58;;;;;;;7.90;4.88;;;;;;;1.55;100.00;94374.78;5111940;27;20047;-74
2021/12/20 01:21:26;;;;;;;9.60;4.68;;;;;;;1.63;100.00;94397.72;5112056;27;20062;-73
2021/12/20 01:23:53;;;;;;;9.50;5.30;;;;;;;1.55;100.00;94374.78;5111016;27;20130;-73
2021/12/20 01:26:20;;;;;;;9.32;4.97;;;;;;;1.50;100.00;94382.22;5115594;27;20042;-73
2021/12/20 01:28:47;;;;;;;10.27;5.15;;;;;;;1.49;100.00;94381.41;5114210;27;20405;-73
2021/12/20 01:31:14;;;;;;;9.63;5.13;;;;;;;1.44;100.00;94367.56;5112151;27;20055;-73
2021/12/20 01:33:41;;;;;;;6.10;4.10;;;;;;;1.52;100.00;94395.66;5108305;27;20707;-73
2021/12/20 01:36:08;;;;;;;6.95;4.35;;;;;;;1.49;100.00;94362.66;5110043;27;20035;-72
2021/12/20 01:38:35;;;;;;;7.50;3.90;;;;;;;1.61;100.00;94379.16;5111246;27;20043;-73
2021/12/20 01:41:02;;;;;;;11.43;4.65;;;;;;;1.55;100.00;94377.34;5111018;27;20042;-74
2021/12/20 01:43:29;;;;;;;6.55;3.72;;;;;;;1.41;100.00;94368.72;5096631;27;20047;-73
2021/12/20 01:45:58;;;;;;;11.57;4.68;;;;;;;1.54;100.00;94370.59;5116929;27;20053;-73
2021/12/20 01:48:25;;;;;;;8.30;4.82;;;;;;;1.57;100.00;94388.22;5113551;27;20560;-74
2021/12/20 01:53:23;;;;;;;7.72;4.95;;;;;;;1.57;100.00;94390.78;5112734;27;20421;-74
2021/12/20 01:55:52;;;;;;;11.23;5.00;;;;;;;1.51;100.00;94381.22;5112714;27;20092;-74
2021/12/20 01:58:19;;;;;;;10.80;4.40;;;;;;;1.47;100.00;94374.91;5112003;27;20081;-73
2021/12/20 02:01:01;;;;;;;7.35;4.68;;;;;;;1.52;100.00;94385.41;5111242;27;20445;-74
2021/12/20 02:03:29;;;;;;;10.75;5.13;;;;;;;1.57;100.00;94388.22;5113865;27;20071;-73
2021/12/20 02:05:59;;;;;;;12.40;4.90;;;;;;;1.58;100.00;94399.25;5110265;27;20039;-74
2021/12/20 02:08:28;;;;;;;5.45;3.28;;;;;;;1.49;100.00;94401.16;5107790;27;20558;-73
2021/12/20 02:10:58;;;;;;;9.65;5.72;;;;;;;1.52;100.00;94395.66;5116901;27;20489;-74
2021/12/20 02:13:30;;;;;;;9.20;4.43;;;;;;;1.53;100.00;94400.63;5090509;28;20102;-74
2021/12/20 02:15:57;;;;;;;11.35;7.00;;;;;;;1.55;100.00;94400.44;5110272;27;20046;-73
2021/12/20 02:18:25;;;;;;;9.60;4.68;;;;;;;1.51;100.00;94394.06;5106241;27;20040;-73
2021/12/20 02:20:52;;;;;;;52.38;19.10;;;;;;;1.49;100.00;94390.91;5107060;27;21301;-74
2021/12/20 02:23:20;;;;;;;10.43;6.82;;;;;;;1.43;100.00;94392.44;5110703;27;20074;-74
2021/12/20 02:25:47;;;;;;;11.00;5.25;;;;;;;1.45;100.00;94384.56;5107510;27;20062;-73
2021/12/20 02:28:16;;;;;;;8.60;5.90;;;;;;;1.49;100.00;94398.59;5109755;27;20444;-74
2021/12/20 02:38:49;;;;;;;8.82;5.00;;;;;;;1.47;100.00;94395.41;5113300;27;20580;-73
2021/12/20 02:41:25;;;;;;;7.45;4.63;;;;;;;1.48;100.00;94394.47;5103787;27;20448;-74
2021/12/20 02:43:56;;;;;;;12.15;6.18;;;;;;;1.32;100.00;94365.50;5113761;27;20413;-74
2021/12/20 02:48:56;;;;;;;17.42;6.35;;;;;;;1.45;100.00;94375.06;5110190;27;20048;-74
2021/12/20 02:51:26;;;;;;;7.20;4.03;;;;;;;1.44;100.00;94382.94;5108226;27;20052;-74
2021/12/20 02:53:57;;;;;;;12.05;6.57;;;;;;;1.47;100.00;94373.13;5092502;28;20040;-74
2021/12/20 02:56:24;;;;;;;11.30;6.38;;;;;;;1.59;100.00;94385.47;5097327;27;20050;-73
2021/12/20 02:58:52;;;;;;;9.05;5.82;;;;;;;1.42;100.00;94378.00;5112313;27;20044;-74
2021/12/20 03:01:20;;;;;;;11.18;5.57;;;;;;;1.51;100.00;94399.19;5115959;27;20035;-74
2021/12/20 03:03:48;;;;;;;8.82;4.90;;;;;;;1.47;100.00;94390.28;5113407;27;20065;-73
2021/12/20 03:06:20;;;;;;;8.18;4.78;;;;;;;1.49;100.00;94390.91;5115361;27;20420;-74
2021/12/20 03:08:50;;;;;;;11.13;5.72;;;;;;;1.50;100.00;94393.28;5109584;27;20032;-74
2021/12/20 03:11:18;;;;;;;8.68;5.18;;;;;;;1.42;100.00;94379.78;5112135;27;20043;-73
2021/12/20 03:13:49;;;;;;;13.25;6.60;;;;;;;1.49;100.00;94390.91;5109210;27;20519;-74
2021/12/20 03:16:17;;;;;;;23.88;6.53;;;;;;;1.55;100.00;94395.31;5095123;27;20401;-74
2021/12/20 03:18:43;;;;;;;13.90;6.93;;;;;;;1.53;100.00;94399.81;5116255;27;20054;-74
2021/12/20 03:21:11;;;;;;;11.48;6.13;;;;;;;1.51;100.00;94394.06;5110173;27;20154;-73
2021/12/20 03:23:38;;;;;;;11.30;5.53;;;;;;;1.51;100.00;94389.75;5109329;27;20039;-73
2021/12/20 03:26:05;;;;;;;10.07;5.22;;;;;;;1.41;100.00;94398.75;5117599;27;20039;-75
2021/12/20 03:28:32;;;;;;;12.63;6.90;;;;;;;1.45;100.00;94399.94;5110650;27;20119;-74
2021/12/20 03:30:59;;;;;;;8.02;5.53;;;;;;;1.41;100.00;94388.47;5112092;27;20853;-73
2021/12/20 03:33:25;;;;;;;7.75;4.63;;;;;;;1.40;100.00;94386.88;5106180;27;20043;-73
2021/12/20 03:35:52;;;;;;;10.77;6.25;;;;;;;1.43;100.00;94383.94;5108473;27;20151;-72
2021/12/20 03:38:19;;;;;;;10.70;6.57;;;;;;;1.52;100.00;94405.94;5105914;27;20039;-73
2021/12/20 03:40:46;;;;;;;13.30;5.38;;;;;;;1.44;100.00;94413.75;5109705;27;20507;-73
2021/12/20 03:43:13;;;;;;;8.98;4.40;;;;;;;1.34;100.00;94399.47;5105405;27;20035;-73
2021/12/20 03:45:42;;;;;;;14.32;6.90;;;;;;;1.46;100.00;94401.53;5105578;27;20046;-73
2021/12/20 03:48:09;;;;;;;10.82;5.55;;;;;;;1.40;100.00;94412.53;5091673;28;20580;-72
2021/12/20 03:50:36;;;;;;;10.25;5.80;;;;;;;1.19;100.00;94370.53;5109586;28;20112;-72
2021/12/20 03:53:03;;;;;;;10.75;6.07;;;;;;;1.42;100.00;94401.09;5101912;28;20048;-73
2021/12/20 03:55:30;;;;;;;12.68;6.35;;;;;;;1.42;100.00;94395.19;5105585;28;20501;-73
2021/12/20 03:57:57;;;;;;;11.27;6.32;;;;;;;1.39;100.00;94411.75;5107273;28;20056;-72
2021/12/20 04:00:24;;;;;;;10.07;6.50;;;;;;;1.29;100.00;94386.38;5108248;28;20051;-72
2021/12/20 04:02:53;;;;;;;11.95;6.85;;;;;;;1.38;100.00;94402.44;5110521;28;20032;-73
2021/12/20 04:05:20;;;;;;;11.63;5.22;;;;;;;1.30;100.00;94402.59;5108539;28;20036;-73
2021/12/20 04:07:47;;;;;;;14.30;7.72;;;;;;;1.26;100.00;94402.16;5110906;28;20143;-73
2021/12/20 04:10:14;;;;;;;18.00;8.52;;;;;;;1.14;100.00;94393.38;5108834;28;20512;-72
2021/12/20 04:12:41;;;;;;;7.78;4.25;;;;;;;1.17;100.00;94418.66;5088295;28;20040;-72
2021/12/20 04:15:09;;;;;;;13.48;8.02;;;;;;;1.17;100.00;94403.28;5105960;28;20043;-72
2021/12/20 04:17:35;;;;;;;10.00;6.57;;;;;;;1.19;100.00;94416.69;5104042;28;20039;-72
2021/12/20 04:20:04;;;;;;;14.38;7.18;;;;;;;1.07;100.00;94384.81;5109870;28;20047;-72
2021/12/20 04:22:30;;;;;;;10.18;5.47;;;;;;;1.21;100.00;94414.75;5112330;28;20542;-72
2021/12/20 04:24:57;;;;;;;14.45;8.32;;;;;;;1.21;100.00;94419.09;5107674;28;20444;-73
2021/12/20 04:27:24;;;;;;;11.90;6.82;;;;;;;1.15;100.00;94423.16;5113530;28;20035;-72
2021/12/20 04:29:53;;;;;;;12.80;5.70;;;;;;;1.23;100.00;94433.31;5109825;28;20039;-72
2021/12/20 04:32:20;;;;;;;12.35;6.47;;;;;;;1.21;100.00;94440.41;5107437;28;20420;-73
2021/12/20 04:34:48;;;;;;;14.70;9.07;;;;;;;1.21;100.00;94432.69;5112547;28;20474;-72
2021/12/20 04:37:14;;;;;;;14.48;7.22;;;;;;;1.17;100.00;94428.91;5104535;28;20055;-72
2021/12/20 04:39:42;;;;;;;14.35;6.93;;;;;;;1.27;100.00;94434.53;5116502;27;20039;-73
2021/12/20 04:42:09;;;;;;;10.07;5.95;;;;;;;1.22;100.00;94439.41;5115600;27;20045;-72
2021/12/20 04:44:35;;;;;;;18.50;8.45;;;;;;;1.18;100.00;94440.75;5113482;27;20455;-73
2021/12/20 04:47:04;;;;;;;20.02;7.50;;;;;;;1.11;100.00;94419.38;5116732;27;20040;-72
2021/12/20 04:49:31;;;;;;;12.88;6.97;;;;;;;1.14;100.00;94431.84;5111402;27;20055;-72
2021/12/20 04:51:58;;;;;;;14.10;7.15;;;;;;;1.09;100.00;94431.59;5105755;27;20052;-72
2021/12/20 04:54:25;;;;;;;13.95;7.40;;;;;;;1.23;100.00;94443.56;5107189;27;20040;-72
2021/12/20 04:56:52;;;;;;;13.73;7.22;;;;;;;1.27;100.00;94449.91;5110944;27;20043;-73
2021/12/20 04:59:19;;;;;;;17.33;8.43;;;;;;;1.27;100.00;94449.91;5118085;27;20039;-72
2021/12/20 05:01:46;;;;;;;14.15;6.93;;;;;;;1.23;100.00;94442.78;5114169;27;20031;-72
2021/12/20 05:04:13;;;;;;;15.20;7.45;;;;;;;1.23;100.00;94438.44;5107631;27;20031;-73
2021/12/20 05:06:40;;;;;;;12.15;5.80;;;;;;;1.28;100.00;94446.38;5114521;27;20512;-72
2021/12/20 05:09:07;;;;;;;12.38;7.03;;;;;;;1.27;100.00;94442.22;5117120;27;20696;-73
2021/12/20 05:11:35;;;;;;;13.23;7.90;;;;;;;1.19;100.00;94446.66;5109442;27;20489;-72
2021/12/20 05:14:02;;;;;;;12.13;6.72;;;;;;;1.26;100.00;94443.22;5107701;27;20050;-73
2021/12/20 05:16:29;;;;;;;12.85;6.13;;;;;;;1.23;100.00;94453.06;5112910;27;20036;-72
2021/12/20 05:18:56;;;;;;;16.40;7.85;;;;;;;1.31;100.00;94460.63;5114971;27;20407;-72
2021/12/20 05:21:23;;;;;;;12.75;7.43;;;;;;;1.30;100.00;94462.41;5108640;27;20500;-72
2021/12/20 05:23:52;;;;;;;10.55;6.68;;;;;;;1.12;100.00;94447.41;5111786;27;20043;-72
2021/12/20 05:26:19;;;;;;;15.50;7.93;;;;;;;1.32;100.00;94457.88;5108645;27;20040;-72
2021/12/20 05:28:46;;;;;;;10.40;6.38;;;;;;;1.23;100.00;94464.09;5111571;27;20528;-72
2021/12/20 05:31:13;;;;;;;19.50;7.97;;;;;;;1.26;100.00;94481.69;5115117;27;20043;-72
2021/12/20 05:33:40;;;;;;;13.38;7.43;;;;;;;1.04;100.00;94451.84;5109598;27;20040;-72
2021/12/20 05:36:07;;;;;;;14.57;8.40;;;;;;;1.17;100.00;94451.19;5106536;27;20063;-73
2021/12/20 05:38:47;;;;;;;7.28;4.82;;;;;;;1.21;100.00;94471.19;5108268;27;20059;-72
2021/12/20 05:41:14;;;;;;;13.30;6.78;;;;;;;1.14;100.00;94470.31;5112481;27;20424;-73
2021/12/20 05:43:41;;;;;;;12.15;6.88;;;;;;;1.06;100.00;94460.97;5109150;27;20031;-72
2021/12/20 05:46:11;;;;;;;13.30;7.15;;;;;;;1.13;100.00;94473.84;5101288;27;20043;-72
2021/12/20 05:48:38;;;;;;;16.45;7.32;;;;;;;1.11;100.00;94465.53;5098517;27;20057;-73
2021/12/20 05:51:05;;;;;;;13.90;7.78;;;;;;;1.21;100.00;94481.44;5101752;27;20083;-72
2021/12/20 05:53:32;;;;;;;15.75;8.50;;;;;;;1.15;100.00;94479.59;5101851;28;20062;-72
2021/12/20 05:55:59;;;;;;;18.52;8.05;;;;;;;1.10;100.00;94479.34;5111951;27;20186;-72
2021/12/20 05:58:26;;;;;;;13.68;7.32;;;;;;;1.18;100.00;94486.94;5114496;27;20066;-72
2021/12/20 06:00:53;;;;;;;11.75;5.82;;;;;;;1.08;100.00;94481.28;5112555;27;20044;-72
2021/12/20 06:03:20;;;;;;;18.02;6.05;;;;;;;1.08;100.00;94466.72;5108962;27;20062;-72
2021/12/20 06:05:47;;;;;;;15.57;7.55;;;;;;;1.21;100.00;94481.44;5112014;27;20075;-72
2021/12/20 06:08:14;;;;;;;14.13;8.27;;;;;;;1.10;100.00;94484.50;5109605;27;20574;-72
2021/12/20 06:10:41;;;;;;;11.68;7.30;;;;;;;1.19;100.00;94478.28;5107270;27;20039;-72
2021/12/20 06:13:08;;;;;;;10.02;6.65;;;;;;;1.20;100.00;94484.97;5090166;27;20067;-72
2021/12/20 06:15:35;;;;;;;13.70;7.93;;;;;;;1.02;100.00;94475.09;5111573;27;20481;-72
2021/12/20 06:18:02;;;;;;;13.10;7.93;;;;;;;1.23;100.00;94494.88;5110142;27;20044;-72
2021/12/20 06:20:29;;;;;;;15.85;7.57;;;;;;;1.15;100.00;94484.72;5116600;27;20047;-72
2021/12/20 06:22:56;;;;;;;16.65;9.40;;;;;;;1.17;100.00;94493.06;5111467;27;20031;-72
2021/12/20 06:25:25;;;;;;;13.40;7.28;;;;;;;1.12;100.00;94496.16;5104984;28;20050;-72
2021/12/20 06:27:52;;;;;;;14.57;7.43;;;;;;;1.19;100.00;94498.78;5105515;27;20047;-72
2021/12/20 06:30:19;;;;;;;8.00;5.00;;;;;;;1.26;100.00;94515.06;5113690;27;20050;-72
2021/12/20 06:32:46;;;;;;;11.15;5.55;;;;;;;1.05;100.00;94492.72;5107352;27;20498;-72
2021/12/20 06:35:32;;;;;;;11.43;6.65;;;;;;;1.26;100.00;94520.19;5104651;27;20038;-72
2021/12/20 06:38:00;;;;;;;13.77;6.00;;;;;;;1.21;100.00;94519.13;5110685;27;20119;-73
2021/12/20 06:40:30;;;;;;;13.15;6.88;;;;;;;1.26;100.00;94517.63;5107414;27;20048;-73
2021/12/20 06:42:57;;;;;;;11.38;7.15;;;;;;;1.21;100.00;94522.50;5111826;27;20038;-73
2021/12/20 06:45:24;;;;;;;11.02;6.28;;;;;;;1.25;100.00;94533.97;5109297;27;20497;-71
2021/12/20 06:47:51;;;;;;;14.93;5.88;;;;;;;1.29;100.00;94517.25;5104730;28;20035;-72
2021/12/20 06:50:18;;;;;;;13.20;7.93;;;;;;;1.30;100.00;94526.53;5112174;27;20056;-72
2021/12/20 06:52:45;;;;;;;15.35;7.97;;;;;;;1.26;100.00;94533.00;5103556;27;20042;-72
2021/12/20 06:55:12;;;;;;;10.15;6.22;;;;;;;1.25;100.00;94528.84;5109828;27;20043;-72
2021/12/20 06:57:42;;;;;;;16.90;8.15;;;;;;;1.35;100.00;94533.69;5108860;27;20040;-72
2021/12/20 07:00:10;;;;;;;11.52;6.43;;;;;;;1.30;100.00;94516.28;5111260;27;20803;-72
2021/12/20 07:02:37;;;;;;;15.85;8.98;;;;;;;1.30;100.00;94521.41;5114385;27;20059;-72
2021/12/20 07:05:04;;;;;;;12.05;6.35;;;;;;;1.26;100.00;94509.94;5109433;27;20045;-72
2021/12/20 07:07:31;;;;;;;22.13;9.98;;;;;;;1.27;100.00;94518.41;5089454;28;20427;-72
2021/12/20 07:09:58;;;;;;;8.90;6.93;;;;;;;1.44;100.00;94526.66;5103565;28;20047;-72
2021/12/20 07:12:27;;;;;;;11.75;6.85;;;;;;;1.32;100.00;94503.28;5109747;27;20039;-72
2021/12/20 07:14:54;;;;;;;9.55;5.43;;;;;;;1.46;100.00;94534.97;5113320;27;20031;-72
2021/12/20 07:17:21;;;;;;;9.90;6.15;;;;;;;1.45;100.00;94525.72;5108908;27;20059;-72
2021/12/20 07:19:48;;;;;;;12.23;6.05;;;;;;;1.42;100.00;94508.88;5105578;27;20487;-72
2021/12/20 07:22:15;;;;;;;10.20;5.70;;;;;;;1.50;100.00;94523.41;5109023;27;20055;-72
2021/12/20 07:24:42;;;;;;;11.95;7.18;;;;;;;1.46;100.00;94530.66;5090622;28;20043;-72
2021/12/20 07:27:10;;;;;;;12.55;7.18;;;;;;;1.50;100.00;94537.00;5113669;27;20118;-71
2021/12/20 07:29:38;;;;;;;9.35;5.97;;;;;;;1.55;100.00;94527.97;5106240;27;20039;-70
2021/12/20 07:32:05;;;;;;;12.40;6.90;;;;;;;1.52;100.00;94534.28;5105352;27;20804;-72
2021/12/20 07:34:32;;;;;;;13.55;7.28;;;;;;;1.48;100.00;94513.31;5106799;27;20416;-72
2021/12/20 07:36:59;;;;;;;10.35;6.38;;;;;;;1.59;100.00;94519.72;5104322;28;20471;-71
2021/12/20 07:39:26;;;;;;;12.13;6.40;;;;;;;1.55;100.00;94503.13;5107594;27;20417;-71
2021/12/20 07:41:53;;;;;;;11.50;6.50;;;;;;;1.60;100.00;94521.31;5110309;27;20052;-70
2021/12/20 07:44:21;;;;;;;10.57;4.55;;;;;;;1.69;100.00;94527.94;5108038;28;20255;-70
2021/12/20 07:46:49;;;;;;;8.70;5.10;;;;;;;1.75;100.00;94533.28;5105516;28;20059;-71
2021/12/20 07:49:17;;;;;;;8.98;5.60;;;;;;;1.69;100.00;94520.22;5114142;27;20042;-71
2021/12/20 07:51:44;;;;;;;11.55;6.57;;;;;;;1.82;100.00;94536.72;5088258;28;20055;-71
2021/12/20 07:54:11;;;;;;;5.80;3.97;;;;;;;1.80;100.00;94520.69;5101749;28;20039;-71
2021/12/20 07:56:38;;;;;;;7.30;4.65;;;;;;;1.90;100.00;94554.59;5104293;28;20039;-71
2021/12/20 07:59:05;;;;;;;6.43;3.75;;;;;;;1.87;100.00;94536.97;5090056;28;20071;-70
2021/12/20 08:01:34;;;;;;;7.03;3.20;;;;;;;1.90;100.00;94552.00;5104959;28;20044;-72
2021/12/20 08:04:01;;;;;;;5.15;2.67;;;;;;;1.87;100.00;94547.25;5103462;28;20121;-71
2021/12/20 08:06:28;;;;;;;9.05;4.50;;;;;;;1.92;100.00;94550.84;5104006;28;20437;-71
2021/12/20 08:08:56;;;;;;;6.05;4.22;;;;;;;1.94;100.00;94558.38;5087197;28;20059;-72
2021/12/20 08:11:24;;;;;;;8.40;4.82;;;;;;;2.05;100.00;94555.31;5104666;28;20126;-72
2021/12/20 08:13:51;;;;;;;7.28;4.28;;;;;;;2.07;100.00;94553.38;5105500;27;20501;-72
2021/12/20 08:16:19;;;;;;;10.77;5.63;;;;;;;2.06;100.00;94562.03;5108937;27;20051;-72
2021/12/20 08:18:47;;;;;;;5.45;3.35;;;;;;;2.16;100.00;94576.34;5109004;27;20508;-71
2021/12/20 08:21:15;;;;;;;7.07;4.38;;;;;;;2.19;100.00;94555.44;5109212;27;20075;-72
2021/12/20 08:23:43;;;;;;;5.82;3.05;;;;;;;2.22;100.00;94578.19;5115668;27;20047;-71
2021/12/20 08:26:11;;;;;;;5.88;3.60;;;;;;;2.30;100.00;94583.19;5115038;27;20035;-71
2021/12/20 08:28:37;;;;;;;6.50;4.32;;;;;;;2.29;100.00;94555.91;5108446;27;20051;-71
2021/12/20 08:31:08;;;;;;;6.32;4.78;;;;;;;2.47;100.00;94566.53;5107572;27;20035;-71
2021/12/20 08:33:36;;;;;;;9.30;5.05;;;;;;;2.51;100.00;94558.44;5106151;27;20126;-71
2021/12/20 08:36:09;;;;;;;13.63;7.53;;;;;;;2.57;100.00;94573.09;5107789;27;20066;-71
2021/12/20 08:38:36;;;;;;;7.00;4.68;;;;;;;2.61;100.00;94564.03;5107395;27;20119;-71
2021/12/20 08:41:04;;;;;;;8.15;3.85;;;;;;;2.81;100.00;94557.25;5107108;27;20500;-70
2021/12/20 08:43:31;;;;;;;8.77;5.00;;;;;;;2.97;99.94;94560.50;5108468;27;20520;-71
2021/12/20 08:45:59;;;;;;;4.82;2.83;;;;;;;3.08;98.95;94570.25;5112783;27;20040;-70
2021/12/20 08:48:27;;;;;;;9.30;5.80;;;;;;;2.97;99.76;94552.78;5092786;28;20055;-71
2021/12/20 08:51:03;;;;;;;7.63;5.25;;;;;;;3.30;99.85;94567.59;5086458;27;20059;-70
2021/12/20 08:53:31;;;;;;;5.78;4.05;;;;;;;3.36;97.89;94582.25;5068546;27;20047;-71
2021/12/20 08:56:00;;;;;;;7.22;4.70;;;;;;;3.46;97.86;94585.28;5097372;27;20587;-71
2021/12/20 08:58:49;;;;;;;6.10;3.70;;;;;;;3.57;95.87;94574.41;5087010;27;20042;-71
2021/12/20 09:01:21;;;;;;;7.03;3.53;;;;;;;3.58;95.45;94580.34;5101612;27;20054;-70
2021/12/20 09:04:08;;;;;;;7.17;3.23;;;;;;;3.69;95.54;94586.72;5097774;27;20135;-71
2021/12/20 09:06:40;;;;;;;8.68;4.32;;;;;;;3.75;95.84;94581.59;5074902;28;20938;-71
2021/12/20 09:09:11;;;;;;;14.32;7.13;;;;;;;3.91;95.23;94564.22;5104192;27;20067;-71
2021/12/20 09:11:40;;;;;;;7.55;4.05;;;;;;;3.97;94.42;94564.19;5066068;27;20051;-72
2021/12/20 09:14:13;;;;;;;8.45;4.22;;;;;;;4.06;94.06;94566.59;5090270;27;20461;-72
2021/12/20 09:16:43;;;;;;;5.72;3.60;;;;;;;4.10;93.58;94566.00;5075160;27;20061;-72
2021/12/20 09:19:10;;;;;;;5.13;3.20;;;;;;;3.97;92.72;94559.03;5076069;27;20124;-71
2021/12/20 09:21:38;;;;;;;4.05;2.88;;;;;;;3.83;92.13;94567.75;5075735;27;20047;-72
2021/12/20 09:24:09;;;;;;;5.70;3.40;;;;;;;4.06;90.89;94561.44;5067747;28;20047;-71
2021/12/20 09:26:37;;;;;;;3.88;2.58;;;;;;;3.80;90.25;94557.84;5090428;28;20085;-71
2021/12/20 09:29:05;;;;;;;4.40;2.75;;;;;;;3.62;91.30;94561.75;5087102;28;20062;-71
2021/12/20 09:31:51;;;;;;;5.78;3.42;;;;;;;3.53;91.45;94573.22;5087159;28;20140;-71
2021/12/20 09:34:19;;;;;;;5.05;3.13;;;;;;;3.36;92.74;94551.38;5074005;27;20047;-71
2021/12/20 09:36:46;;;;;;;2.30;1.60;;;;;;;3.36;91.58;94553.94;5071922;28;20056;-71
2021/12/20 09:39:18;;;;;;;2.55;2.22;;;;;;;3.18;90.72;94580.97;5069779;28;20466;-71
2021/12/20 09:44:13;;;;;;;3.50;2.05;;;;;;;3.16;92.12;94577.81;5091594;27;20077;-72
2021/12/20 09:46:41;;;;;;;5.88;2.53;;;;;;;3.09;93.22;94582.13;5086245;27;20044;-71
2021/12/20 09:49:15;;;;;;;4.75;2.88;;;;;;;3.14;91.11;94548.91;5100142;27;20578;-72
2021/12/20 09:51:42;;;;;;;2.42;1.80;;;;;;;3.33;90.83;94587.78;5106764;27;20056;-72
2021/12/20 09:54:09;;;;;;;2.15;1.63;;;;;;;3.67;90.71;94548.28;5098869;28;20134;-73
2021/12/20 09:56:39;;;;;;;4.75;2.88;;;;;;;4.09;88.50;94550.72;5105530;27;20429;-72
2021/12/20 09:59:10;;;;;;;24.23;10.38;;;;;;;4.26;88.55;94561.47;5101246;27;20051;-72
2021/12/20 10:01:37;;;;;;;5.38;3.38;;;;;;;4.21;87.69;94559.47;5105485;27;20043;-72
2021/12/20 10:04:06;;;;;;;5.15;3.47;;;;;;;4.06;87.93;94571.75;5109062;27;20063;-72
2021/12/20 10:06:37;;;;;;;1.55;1.23;;;;;;;4.10;86.71;94557.47;5112563;27;20571;-72
2021/12/20 10:09:12;;;;;;;3.67;2.03;;;;;;;3.94;88.46;94564.59;5106104;27;20050;-71
2021/12/20 10:11:39;;;;;;;;;;;;;;;3.63;88.48;94563.31;5114126;27;20034;-71
2021/12/20 10:14:10;;;;;;;3.10;2.33;;;;;;;3.41;90.87;94560.09;5113364;27;20316;-72
2021/12/20 10:16:39;;;;;;;5.90;2.60;;;;;;;3.22;92.61;94553.09;5106805;27;20418;-71
2021/12/20 10:19:26;;;;;;;4.32;2.72;;;;;;;3.16;92.81;94566.72;5108615;27;20101;-71
2021/12/20 10:21:55;;;;;;;4.30;3.17;;;;;;;3.03;93.59;94557.16;5103821;28;20122;-71
2021/12/20 10:24:32;;;;;;;5.20;2.92;;;;;;;3.09;93.20;94563.34;5112867;27;20049;-72
2021/12/20 10:27:00;;;;;;;11.32;2.83;;;;;;;3.02;92.69;94566.66;5109040;27;20046;-73
2021/12/20 10:29:28;;;;;;;5.47;3.25;;;;;;;3.02;93.10;94560.72;5109334;27;20074;-73
2021/12/20 10:31:56;;;;;;;4.22;3.17;;;;;;;3.03;93.58;94557.97;5106338;27;20134;-73
2021/12/20 10:34:35;;;;;;;3.85;2.70;;;;;;;3.02;93.14;94565.84;5102717;27;20035;-72
2021/12/20 10:37:04;;;;;;;5.22;2.83;;;;;;;3.04;92.78;94558.75;5102678;27;20043;-72
2021/12/20 10:39:43;;;;;;;8.18;4.13;;;;;;;3.18;94.01;94544.94;5102151;27;20046;-73
2021/12/20 10:42:25;;;;;;;3.28;2.05;;;;;;;3.09;93.92;94543.53;5100083;27;20496;-73
2021/12/20 10:45:09;;;;;;;4.82;2.78;;;;;;;3.06;94.31;94551.63;5098402;27;20048;-73
2021/12/20 10:47:36;;;;;;;4.05;2.35;;;;;;;2.92;94.33;94534.53;5102155;28;20059;-73
2021/12/20 10:50:31;;;;;;;4.95;3.03;;;;;;;2.91;94.62;94548.41;5103471;27;20039;-71
2021/12/20 10:53:18;;;;;;;3.25;2.05;;;;;;;2.81;95.22;94539.25;5069095;27;20048;-72
2021/12/20 10:55:54;;;;;;;3.33;2.35;;;;;;;2.83;95.18;94527.00;5083772;27;20039;-73
2021/12/20 10:58:42;;;;;;;5.07;2.53;;;;;;;2.73;96.79;94541.97;5077765;27;20032;-73
2021/12/20 11:04:05;;;;;;;2.70;1.92;;;;;;;2.60;96.69;94536.75;5074948;27;20036;-73
2021/12/20 11:06:44;;;;;;;4.05;2.50;;;;;;;2.55;98.70;94549.38;5068943;28;20457;-72
2021/12/20 11:09:20;;;;;;;2.78;1.92;;;;;;;2.42;98.58;94540.56;5078401;28;20100;-72
2021/12/20 11:11:54;;;;;;;5.97;3.58;;;;;;;2.50;98.97;94542.19;5083645;27;20040;-73
2021/12/20 11:14:37;;;;;;;4.07;2.38;;;;;;;2.50;99.89;94542.19;5089961;28;20039;-74
2021/12/20 11:17:10;;;;;;;4.82;2.85;;;;;;;2.66;99.66;94543.69;5093122;27;20568;-73
2021/12/20 11:19:51;;;;;;;3.25;1.90;;;;;;;2.73;100.00;94544.53;5071970;27;20054;-73
2021/12/20 11:22:25;;;;;;;5.03;3.17;;;;;;;2.77;100.00;94535.44;5092169;27;20055;-73
2021/12/20 11:25:03;;;;;;;3.57;2.50;;;;;;;2.79;99.73;94530.94;5091998;27;20609;-73
2021/12/20 11:27:56;;;;;;;8.50;3.67;;;;;;;2.81;99.79;94544.38;5088615;27;20891;-72
2021/12/20 11:30:33;;;;;;;6.85;3.85;;;;;;;2.89;98.28;94529.78;5084748;27;20043;-73
2021/12/20 11:33:01;;;;;;;3.95;2.53;;;;;;;2.86;96.70;94536.91;5103211;27;20035;-73
2021/12/20 11:35:30;;;;;;;4.45;2.83;;;;;;;2.92;95.83;94539.69;5086425;28;20067;-73
2021/12/20 11:37:58;;;;;;;3.80;2.33;;;;;;;2.92;96.01;94529.38;5082901;28;20178;-73
2021/12/20 11:40:26;;;;;;;1.92;1.63;;;;;;;2.90;96.00;94521.06;5091627;28;20509;-73
2021/12/20 11:43:00;;;;;;;6.10;4.00;;;;;;;2.90;95.60;94536.50;5090200;28;20039;-73
2021/12/20 11:45:27;;;;;;;4.63;3.00;;;;;;;2.81;96.01;94546.97;5086343;28;20044;-72
2021/12/20 11:48:03;;;;;;;3.60;2.63;;;;;;;2.79;96.46;94546.38;5084001;28;20047;-73
2021/12/20 11:50:37;;;;;;;3.55;2.58;;;;;;;2.92;96.84;94552.53;5100502;28;20201;-72
2021/12/20 11:53:34;;;;;;;4.77;2.83;;;;;;;3.01;95.88;94549.63;5078583;28;20075;-72
2021/12/20 11:56:04;;;;;;;5.22;2.80;;;;;;;3.70;93.80;94557.41;5072497;28;20043;-74
2021/12/20 11:58:32;;;;;;;3.58;2.17;;;;;;;4.22;90.75;94561.84;5102479;28;20039;-75
2021/12/20 12:01:05;;;;;;;4.03;2.97;;;;;;;4.82;87.01;94570.56;5100358;28;20849;-75
2021/12/20 12:03:39;;;;;;;1.98;1.73;;;;;;;4.81;84.14;94574.13;5094706;28;20588;-74